Time;durP1;ratioP1;P1;durP2;ratioP2;P2;SDS_P1;SDS_P2;PMS_P1;PMS_P2;Temp;Humidity;BMP_temperature;BMP_pressure;BME280_temperature;BME280_humidity;BME280_pressure;Samples;Min_cycle;Max_cycle;Signal;HPM_P1;HPM_P2
2022/11/11 00:01:02;;;;;;;11.35;5.30;;;;;;;8.23;100.00;102799.06;5090334;28;20028;-72
2022/11/11 00:03:28;;;;;;;14.13;5.22;;;;;;;8.23;100.00;102789.28;5107587;28;20039;-72
2022/11/11 00:05:54;;;;;;;12.13;5.53;;;;;;;8.23;100.00;102785.78;5090159;28;20020;-72
2022/11/11 00:08:19;;;;;;;14.65;6.72;;;;;;;8.20;100.00;102784.22;5089880;28;20051;-72
2022/11/11 00:10:45;;;;;;;17.80;5.97;;;;;;;8.21;100.00;102785.91;5090156;28;20127;-72
2022/11/11 00:13:11;;;;;;;12.43;5.80;;;;;;;8.22;100.00;102782.25;5090059;28;20417;-72
2022/11/11 00:15:37;;;;;;;13.93;5.95;;;;;;;8.21;100.00;102780.56;5090161;28;20546;-72
2022/11/11 00:26:20;;;;;;;14.20;6.15;;;;;;;8.45;100.00;102785.59;5090356;28;20906;-72
2022/11/11 00:28:45;;;;;;;17.98;6.72;;;;;;;8.50;100.00;102794.00;5090048;28;20028;-72
2022/11/11 00:31:12;;;;;;;18.10;7.90;;;;;;;8.58;100.00;102796.00;5089751;28;20082;-72
2022/11/11 00:33:38;;;;;;;14.98;6.40;;;;;;;8.60;100.00;102801.19;5089958;28;20030;-72
2022/11/11 00:36:04;;;;;;;13.70;6.82;;;;;;;8.62;100.00;102797.41;5089817;28;20024;-72
2022/11/11 00:38:45;;;;;;;14.77;7.35;;;;;;;8.70;100.00;102805.56;5089825;28;20039;-72
2022/11/11 00:41:19;;;;;;;16.92;7.78;;;;;;;8.74;100.00;102798.97;5089739;28;20032;-72
2022/11/11 00:43:46;;;;;;;16.30;7.55;;;;;;;8.73;100.00;102794.63;5089675;28;20028;-72
2022/11/11 00:51:41;;;;;;;14.15;7.13;;;;;;;8.86;100.00;102812.19;5090066;28;20128;-72
2022/11/11 00:54:07;;;;;;;15.73;8.07;;;;;;;8.88;100.00;102816.38;5089391;28;20110;-72
2022/11/11 00:56:35;;;;;;;17.60;7.47;;;;;;;8.89;100.00;102810.06;5089559;28;20098;-72
2022/11/11 00:59:01;;;;;;;15.23;7.40;;;;;;;8.90;100.00;102816.22;5089615;28;20379;-72
2022/11/11 01:01:26;;;;;;;16.20;6.65;;;;;;;8.93;100.00;102824.81;5089564;28;20028;-72
2022/11/11 01:03:51;;;;;;;18.45;9.85;;;;;;;8.94;100.00;102813.16;5089585;28;20031;-72
2022/11/11 01:06:17;;;;;;;16.55;7.43;;;;;;;8.89;100.00;102826.03;5089579;28;20428;-72
2022/11/11 01:08:42;;;;;;;14.88;8.10;;;;;;;8.95;100.00;102837.97;5089600;28;20032;-72
2022/11/11 01:11:16;;;;;;;17.90;8.38;;;;;;;8.96;100.00;102839.63;5089452;28;20028;-72
2022/11/11 01:13:42;;;;;;;16.95;8.38;;;;;;;8.95;100.00;102830.81;5089439;28;20036;-72
2022/11/11 01:16:12;;;;;;;19.90;8.70;;;;;;;8.97;100.00;102826.19;5089528;28;20475;-72
2022/11/11 01:18:37;;;;;;;17.05;8.77;;;;;;;8.97;100.00;102823.53;5101604;28;20027;-72
2022/11/11 01:21:23;;;;;;;19.38;8.15;;;;;;;9.01;100.00;102826.75;5110371;28;21070;-72
2022/11/11 01:23:51;;;;;;;21.55;8.48;;;;;;;9.03;100.00;102830.13;5094183;28;20040;-72
2022/11/11 01:26:23;;;;;;;19.42;8.85;;;;;;;9.04;100.00;102822.97;5112718;28;20108;-72
2022/11/11 01:28:52;;;;;;;20.08;9.43;;;;;;;9.01;100.00;102818.75;5112683;28;20038;-72
2022/11/11 01:31:19;;;;;;;22.42;9.70;;;;;;;9.05;100.00;102820.19;5112687;28;20065;-72
2022/11/11 01:33:44;;;;;;;16.98;9.10;;;;;;;9.05;100.00;102822.00;5112656;28;20028;-67
2022/11/11 01:36:16;;;;;;;17.83;8.02;;;;;;;9.05;100.00;102817.53;5112578;28;20052;-66
2022/11/11 01:38:42;;;;;;;16.17;7.32;;;;;;;9.07;100.00;102812.91;5112447;28;20030;-67
2022/11/11 01:43:55;;;;;;;16.67;8.02;;;;;;;9.10;100.00;102809.13;5098399;28;20513;-67
2022/11/11 01:46:27;;;;;;;19.80;8.90;;;;;;;9.11;100.00;102811.63;5112286;28;20036;-66
2022/11/11 01:51:44;;;;;;;17.02;8.68;;;;;;;9.10;100.00;102801.16;5092585;28;20038;-66
2022/11/11 01:55:08;;;;;;;17.27;8.32;;;;;;;9.11;100.00;102798.31;5092725;28;20386;-67
2022/11/11 01:57:36;;;;;;;17.70;8.20;;;;;;;9.12;100.00;102800.03;5036496;28;20047;-67
2022/11/11 02:00:10;;;;;;;17.73;8.10;;;;;;;9.13;100.00;102795.53;5092564;28;20122;-66
2022/11/11 02:02:43;;;;;;;16.63;8.15;;;;;;;9.13;100.00;102800.88;5092468;28;20470;-67
2022/11/11 02:08:00;;;;;;;19.23;8.07;;;;;;;9.12;100.00;102794.72;5110521;28;20121;-66
2022/11/11 02:10:28;;;;;;;17.65;9.48;;;;;;;9.09;100.00;102780.81;5111836;28;20023;-67
2022/11/11 02:15:38;;;;;;;23.25;10.43;;;;;;;9.10;100.00;102782.50;5112084;28;20435;-67
2022/11/11 02:18:04;;;;;;;21.42;10.00;;;;;;;9.05;100.00;102766.13;5111630;28;20032;-67
2022/11/11 02:20:35;;;;;;;19.85;9.23;;;;;;;9.07;100.00;102769.50;5111896;28;20048;-67
2022/11/11 02:23:30;;;;;;;18.45;8.45;;;;;;;9.08;100.00;102773.81;5111629;28;20103;-66
2022/11/11 02:25:58;;;;;;;20.17;7.95;;;;;;;9.06;100.00;102767.78;5092014;28;20124;-66
2022/11/11 02:28:25;;;;;;;21.05;7.88;;;;;;;9.04;100.00;102767.94;5092153;28;20468;-66
2022/11/11 02:30:51;;;;;;;16.88;8.65;;;;;;;9.03;100.00;102782.22;5092016;28;20997;-66
2022/11/11 02:33:16;;;;;;;19.13;9.40;;;;;;;9.00;100.00;102779.84;5091766;28;20122;-67
2022/11/11 02:35:45;;;;;;;19.48;9.35;;;;;;;8.98;100.00;102779.97;5091954;28;20066;-66
2022/11/11 02:38:11;;;;;;;18.83;8.00;;;;;;;9.02;100.00;102788.53;5091822;28;20028;-66
2022/11/11 02:41:55;;;;;;;18.05;8.18;;;;;;;8.99;100.00;102773.69;5091904;28;20028;-66
2022/11/11 02:43:29;;;;;;;23.00;9.30;;;;;;;9.05;100.00;102774.09;5091669;28;20051;-66
2022/11/11 02:45:54;;;;;;;25.35;8.88;;;;;;;9.05;100.00;102780.25;5091594;28;20585;-66
2022/11/11 02:48:20;;;;;;;16.92;9.13;;;;;;;9.06;100.00;102779.28;5091657;28;20054;-66
2022/11/11 02:50:45;;;;;;;16.90;7.90;;;;;;;9.06;100.00;102765.97;5091671;28;20039;-67
2022/11/11 02:53:10;;;;;;;19.27;8.65;;;;;;;9.06;100.00;102773.94;5091457;28;20403;-66
2022/11/11 02:55:36;;;;;;;21.00;8.13;;;;;;;9.06;100.00;102765.97;5091162;28;20492;-66
2022/11/11 02:58:02;;;;;;;18.45;10.50;;;;;;;9.05;100.00;102763.47;5091402;28;20054;-66
2022/11/11 03:00:27;;;;;;;20.40;8.65;;;;;;;9.05;100.00;102766.13;5091403;28;20028;-66
2022/11/11 03:02:52;;;;;;;30.25;9.50;;;;;;;8.99;100.00;102764.84;5073186;28;20036;-66
2022/11/11 03:05:18;;;;;;;19.60;9.77;;;;;;;9.05;100.00;102776.75;5091121;28;20028;-67
2022/11/11 03:07:43;;;;;;;19.80;7.95;;;;;;;9.04;100.00;102778.59;5091343;28;20028;-67
2022/11/11 03:10:09;;;;;;;16.05;7.43;;;;;;;9.05;100.00;102782.94;5091238;28;20024;-66
2022/11/11 03:12:34;;;;;;;16.80;7.88;;;;;;;9.06;100.00;102783.75;5091262;28;20036;-66
2022/11/11 03:15:00;;;;;;;23.55;8.90;;;;;;;9.05;100.00;102772.28;5091167;28;20129;-67
2022/11/11 03:17:40;;;;;;;18.10;8.23;;;;;;;9.03;100.00;102774.22;5091199;28;20032;-66
2022/11/11 03:23:05;;;;;;;16.30;7.95;;;;;;;8.99;100.00;102772.84;5091507;28;20181;-67
2022/11/11 03:25:37;;;;;;;17.02;7.30;;;;;;;9.02;100.00;102787.69;5090964;28;20039;-67
2022/11/11 03:28:09;;;;;;;16.73;9.32;;;;;;;8.98;100.00;102779.97;5090932;28;20028;-67
2022/11/11 03:30:36;;;;;;;16.23;8.23;;;;;;;8.94;100.00;102778.56;5090950;28;20068;-66
2022/11/11 03:33:02;;;;;;;19.13;7.82;;;;;;;8.95;100.00;102779.41;5090756;28;20028;-66
2022/11/11 03:35:28;;;;;;;21.52;8.13;;;;;;;8.94;100.00;102783.91;5090734;28;20043;-66
2022/11/11 03:40:38;;;;;;;19.52;6.97;;;;;;;8.92;100.00;102783.19;5090739;28;20560;-66
2022/11/11 03:43:03;;;;;;;20.67;7.63;;;;;;;8.90;100.00;102782.47;5090049;28;20020;-66
2022/11/11 03:45:29;;;;;;;19.75;8.02;;;;;;;8.89;100.00;102778.16;5090304;28;20031;-66
2022/11/11 03:47:54;;;;;;;17.35;8.88;;;;;;;8.89;100.00;102774.66;5090617;28;20062;-66
2022/11/11 03:50:21;;;;;;;13.80;6.65;;;;;;;8.86;100.00;102770.44;5090513;28;20052;-67
2022/11/11 03:52:46;;;;;;;14.95;6.93;;;;;;;8.80;100.00;102754.19;5090425;28;20035;-67
2022/11/11 03:55:12;;;;;;;16.63;7.78;;;;;;;8.83;100.00;102776.03;5090083;28;20056;-67
2022/11/11 03:57:43;;;;;;;16.00;8.50;;;;;;;8.80;100.00;102776.28;5090316;28;20081;-66
2022/11/11 04:00:09;;;;;;;16.10;7.15;;;;;;;8.80;100.00;102778.13;5090287;28;20502;-67
2022/11/11 04:10:46;;;;;;;16.80;7.47;;;;;;;8.77;100.00;102789.88;5090533;28;20055;-66
2022/11/11 04:16:04;;;;;;;18.58;9.02;;;;;;;8.64;100.00;102773.34;5090372;28;20039;-66
2022/11/11 04:23:58;;;;;;;19.52;7.95;;;;;;;8.68;100.00;102788.06;5090222;28;20062;-66
2022/11/11 04:26:23;;;;;;;17.83;7.93;;;;;;;8.67;100.00;102799.66;5090116;28;20098;-66
2022/11/11 04:31:33;;;;;;;15.75;6.80;;;;;;;8.63;100.00;102798.25;5090195;28;20128;-66
2022/11/11 04:33:58;;;;;;;18.98;8.75;;;;;;;8.62;100.00;102800.09;5089964;28;20071;-66
2022/11/11 04:36:23;;;;;;;17.90;7.15;;;;;;;8.62;100.00;102799.22;5089891;28;20024;-66
2022/11/11 04:41:33;;;;;;;16.33;6.97;;;;;;;8.61;100.00;102802.88;5090236;28;20054;-67
2022/11/11 04:46:42;;;;;;;15.30;7.85;;;;;;;8.57;100.00;102791.66;5090017;28;20506;-66
2022/11/11 04:49:08;;;;;;;22.45;10.30;;;;;;;8.52;100.00;102777.94;5089702;28;20028;-66
2022/11/11 04:54:17;;;;;;;18.73;7.82;;;;;;;8.49;100.00;102776.38;5090311;28;20093;-67
2022/11/11 04:56:53;;;;;;;18.20;7.88;;;;;;;8.56;100.00;102788.13;5093809;28;20056;-66
2022/11/11 04:59:19;;;;;;;16.95;7.47;;;;;;;8.56;100.00;102792.63;5093920;28;20032;-67
2022/11/11 05:04:29;;;;;;;17.48;8.43;;;;;;;8.53;100.00;102792.91;5093888;28;20047;-66
2022/11/11 05:09:38;;;;;;;16.48;8.07;;;;;;;8.52;100.00;102793.88;5093721;28;20070;-66
2022/11/11 05:12:03;;;;;;;17.27;7.05;;;;;;;8.52;100.00;102800.03;5093632;28;20059;-66
2022/11/11 05:22:42;;;;;;;15.07;7.22;;;;;;;8.54;100.00;102795.44;5093615;28;20518;-67
2022/11/11 05:25:24;;;;;;;16.02;7.63;;;;;;;8.46;100.00;102776.66;5093202;28;20051;-66
2022/11/11 05:27:55;;;;;;;16.58;6.10;;;;;;;8.51;100.00;102786.88;5093167;28;20152;-67
2022/11/11 05:30:21;;;;;;;16.52;7.30;;;;;;;8.48;100.00;102795.97;5093356;28;20030;-66
2022/11/11 05:32:47;;;;;;;15.82;7.30;;;;;;;8.46;100.00;102800.59;5093303;28;20467;-67
2022/11/11 05:35:13;;;;;;;17.50;7.57;;;;;;;8.43;100.00;102797.34;5093061;28;20085;-66
2022/11/11 05:37:39;;;;;;;16.15;6.28;;;;;;;8.40;100.00;102797.63;5093173;28;20032;-66
2022/11/11 05:40:05;;;;;;;14.98;6.72;;;;;;;8.32;100.00;102790.28;5092965;28;20023;-67
2022/11/11 05:42:30;;;;;;;16.38;7.45;;;;;;;8.31;100.00;102793.91;5092886;28;20040;-66
2022/11/11 05:44:56;;;;;;;15.40;6.40;;;;;;;8.27;100.00;102798.66;5092868;28;20106;-67
2022/11/11 05:47:21;;;;;;;16.58;7.00;;;;;;;8.26;100.00;102807.59;5092883;28;20122;-66
2022/11/11 05:49:47;;;;;;;20.90;8.60;;;;;;;8.22;100.00;102808.84;5092800;28;20152;-66
2022/11/11 05:52:17;;;;;;;16.48;6.93;;;;;;;8.19;100.00;102805.59;5092916;28;20042;-66
2022/11/11 05:54:43;;;;;;;15.45;7.30;;;;;;;8.11;100.00;102793.81;5092373;28;20032;-66
2022/11/11 05:57:08;;;;;;;14.05;6.85;;;;;;;8.10;100.00;102805.44;5092565;28;20063;-66
2022/11/11 05:59:34;;;;;;;15.10;6.85;;;;;;;8.05;100.00;102799.66;5092685;28;20433;-66
2022/11/11 06:01:59;;;;;;;17.20;8.13;;;;;;;8.06;100.00;102805.81;5092636;28;20383;-66
2022/11/11 06:04:25;;;;;;;18.02;7.38;;;;;;;8.03;100.00;102816.72;5092504;28;20044;-66
2022/11/11 06:06:50;;;;;;;20.35;8.82;;;;;;;7.93;100.00;102814.00;5091973;28;20036;-66
2022/11/11 06:09:16;;;;;;;17.48;6.97;;;;;;;7.93;100.00;102811.34;5092513;28;20104;-66
2022/11/11 06:11:41;;;;;;;17.00;6.68;;;;;;;7.88;100.00;102818.84;5092342;28;20510;-66
2022/11/11 06:14:06;;;;;;;17.35;7.07;;;;;;;7.79;100.00;102823.16;5092351;28;20031;-67
2022/11/11 06:16:32;;;;;;;14.82;6.50;;;;;;;7.73;100.00;102818.38;5092238;28;20028;-72
2022/11/11 06:18:58;;;;;;;18.33;8.52;;;;;;;7.65;100.00;102812.81;5092284;28;20474;-72
2022/11/11 06:21:24;;;;;;;21.45;8.15;;;;;;;7.60;100.00;102823.84;5092365;28;20395;-72
2022/11/11 06:23:50;;;;;;;21.27;9.65;;;;;;;7.55;100.00;102817.25;5099349;28;20027;-72
2022/11/11 06:26:15;;;;;;;20.05;8.38;;;;;;;7.49;100.00;102815.91;5111393;28;20081;-72
2022/11/11 06:28:52;;;;;;;17.73;8.30;;;;;;;7.37;100.00;102812.50;5111744;28;20031;-72
2022/11/11 06:31:25;;;;;;;21.33;9.95;;;;;;;7.35;100.00;102819.72;5111527;28;20084;-72
2022/11/11 06:33:51;;;;;;;15.57;7.72;;;;;;;7.33;100.00;102828.78;5111518;28;20537;-71
2022/11/11 06:36:19;;;;;;;20.30;8.32;;;;;;;7.34;100.00;102835.81;5111428;28;20025;-71
2022/11/11 06:38:45;;;;;;;19.48;8.27;;;;;;;7.33;100.00;102845.56;5111423;28;20028;-71
2022/11/11 06:41:11;;;;;;;21.95;8.82;;;;;;;7.33;100.00;102850.84;5111384;28;20049;-71
2022/11/11 06:43:38;;;;;;;19.52;7.78;;;;;;;7.31;100.00;102850.16;5091657;28;20055;-72
2022/11/11 06:46:03;;;;;;;20.88;9.55;;;;;;;7.29;100.00;102841.47;5091775;28;20035;-71
2022/11/11 06:48:29;;;;;;;23.42;10.60;;;;;;;7.27;100.00;102843.41;5091783;28;20032;-71
2022/11/11 06:51:01;;;;;;;22.70;9.40;;;;;;;7.33;100.00;102860.63;5091580;28;20459;-71
2022/11/11 06:53:28;;;;;;;21.20;10.25;;;;;;;7.30;100.00;102853.78;5091400;28;20035;-72
2022/11/11 06:55:53;;;;;;;21.55;9.27;;;;;;;7.26;100.00;102852.34;5091323;28;20048;-72
2022/11/11 06:58:20;;;;;;;22.02;9.48;;;;;;;7.21;100.00;102851.88;5091362;28;20481;-71
2022/11/11 07:00:47;;;;;;;24.13;8.95;;;;;;;7.16;100.00;102848.75;5091543;28;20024;-71
2022/11/11 07:03:14;;;;;;;25.25;9.48;;;;;;;7.08;100.00;102851.19;5091357;28;20027;-72
2022/11/11 07:05:41;;;;;;;19.75;9.80;;;;;;;6.97;100.00;102844.94;5091103;28;20016;-72
2022/11/11 07:08:09;;;;;;;20.00;8.88;;;;;;;6.99;100.00;102853.59;5091109;28;20479;-71
2022/11/11 07:10:37;;;;;;;19.17;9.05;;;;;;;6.95;100.00;102854.00;5091205;28;20031;-72
2022/11/11 07:13:03;;;;;;;21.85;9.63;;;;;;;6.91;100.00;102849.88;5072939;28;20617;-71
2022/11/11 07:15:28;;;;;;;17.95;8.07;;;;;;;6.89;100.00;102844.72;5091174;28;20028;-72
2022/11/11 07:17:54;;;;;;;21.52;8.43;;;;;;;6.81;100.00;102836.50;5090322;28;20579;-71
2022/11/11 07:20:20;;;;;;;20.58;7.82;;;;;;;6.88;100.00;102856.28;5090698;28;20379;-71
2022/11/11 07:22:45;;;;;;;19.98;8.18;;;;;;;6.85;100.00;102851.22;5090817;28;20456;-71
2022/11/11 07:25:11;;;;;;;19.35;8.05;;;;;;;6.85;100.00;102851.22;5090868;28;20028;-72
2022/11/11 07:27:37;;;;;;;20.58;9.00;;;;;;;6.86;100.00;102862.66;5090829;28;20067;-71
2022/11/11 07:30:04;;;;;;;19.77;7.70;;;;;;;6.80;100.00;102859.53;5090881;28;20071;-72
2022/11/11 07:32:29;;;;;;;19.52;8.75;;;;;;;6.88;100.00;102885.47;5090923;28;20119;-72
2022/11/11 07:34:55;;;;;;;18.73;8.77;;;;;;;6.87;100.00;102869.69;5090708;28;20099;-70
2022/11/11 07:37:20;;;;;;;18.15;8.48;;;;;;;6.93;100.00;102879.78;5091764;28;20160;-71
2022/11/11 07:39:53;;;;;;;19.30;9.07;;;;;;;6.90;100.00;102878.22;5066566;28;20460;-69
2022/11/11 07:42:19;;;;;;;25.10;9.80;;;;;;;6.94;100.00;102881.47;5066736;28;20373;-70
2022/11/11 07:44:45;;;;;;;17.30;7.68;;;;;;;6.95;100.00;102883.16;5066560;28;20031;-70
2022/11/11 07:47:10;;;;;;;18.58;7.90;;;;;;;6.97;100.00;102879.44;5066474;28;20438;-70
2022/11/11 07:49:35;;;;;;;19.52;9.02;;;;;;;7.00;100.00;102886.31;5066231;28;20033;-70
2022/11/11 07:52:01;;;;;;;22.13;7.95;;;;;;;7.03;100.00;102894.00;5066228;28;20039;-70
2022/11/11 07:54:26;;;;;;;17.02;7.68;;;;;;;7.00;100.00;102889.78;5064887;28;20116;-70
2022/11/11 07:56:51;;;;;;;19.52;8.40;;;;;;;7.04;100.00;102893.03;5066204;28;20033;-69
2022/11/11 07:59:17;;;;;;;17.17;8.10;;;;;;;7.06;100.00;102898.22;5066158;28;20074;-69
2022/11/11 08:01:42;;;;;;;15.88;7.43;;;;;;;7.05;100.00;102900.03;5066198;28;20032;-70
2022/11/11 08:04:07;;;;;;;14.52;5.93;;;;;;;7.10;100.00;102910.25;5065986;28;20032;-70
2022/11/11 08:06:33;;;;;;;15.52;6.95;;;;;;;7.14;100.00;102914.38;5066082;28;20047;-69
2022/11/11 08:08:58;;;;;;;20.92;7.35;;;;;;;7.17;100.00;102914.97;5066107;28;20029;-70
2022/11/11 08:14:07;;;;;;;17.38;6.30;;;;;;;7.24;100.00;102928.59;5065265;28;20116;-70
2022/11/11 08:16:33;;;;;;;16.35;5.78;;;;;;;7.30;100.00;102932.56;5065346;28;20104;-70
2022/11/11 08:18:59;;;;;;;18.88;5.72;;;;;;;7.33;100.00;102932.31;5065420;28;20029;-69
2022/11/11 08:21:24;;;;;;;13.80;6.20;;;;;;;7.35;100.00;102931.22;5065412;28;20040;-70
2022/11/11 08:23:50;;;;;;;13.32;5.40;;;;;;;7.43;100.00;102941.22;5065719;28;20082;-69
2022/11/11 08:26:16;;;;;;;11.30;5.50;;;;;;;7.42;100.00;102931.56;5066184;28;20463;-69
2022/11/11 08:28:42;;;;;;;14.07;6.05;;;;;;;7.50;100.00;102938.91;5065827;28;20025;-68
2022/11/11 08:31:08;;;;;;;13.73;6.07;;;;;;;7.56;100.00;102941.06;5065510;28;20555;-69
2022/11/11 08:33:34;;;;;;;15.48;5.25;;;;;;;7.53;100.00;102933.34;5060816;28;20037;-72
2022/11/11 08:36:01;;;;;;;13.63;4.60;;;;;;;7.68;100.00;102948.88;5059232;28;20368;-70
2022/11/11 08:38:26;;;;;;;15.20;4.95;;;;;;;7.72;100.00;102944.16;5058890;28;20083;-70
2022/11/11 08:40:51;;;;;;;9.48;3.70;;;;;;;7.81;100.00;102959.34;5059362;28;20060;-69
2022/11/11 08:43:17;;;;;;;13.93;4.80;;;;;;;7.85;100.00;102954.59;5059006;28;20069;-70
2022/11/11 08:45:42;;;;;;;11.80;5.03;;;;;;;7.92;100.00;102961.09;5057942;28;20124;-69
2022/11/11 08:48:11;;;;;;;11.77;4.88;;;;;;;7.95;100.00;102952.03;5058474;28;20025;-69
2022/11/11 08:50:38;;;;;;;16.13;5.72;;;;;;;7.97;100.00;102958.06;5049460;28;20430;-69
2022/11/11 08:53:06;;;;;;;12.05;4.22;;;;;;;8.01;100.00;102970.97;5046184;28;20078;-69
2022/11/11 08:55:33;;;;;;;9.02;3.97;;;;;;;8.03;100.00;102966.38;5046000;28;20116;-71
2022/11/11 08:58:03;;;;;;;9.80;3.95;;;;;;;8.05;100.00;102958.28;5045832;28;20053;-70
2022/11/11 09:00:28;;;;;;;10.50;4.70;;;;;;;8.07;100.00;102967.81;5045251;28;20039;-71
2022/11/11 09:02:54;;;;;;;12.88;5.70;;;;;;;8.11;100.00;102955.94;5045401;28;20033;-70
2022/11/11 09:05:19;;;;;;;11.93;4.43;;;;;;;8.12;100.00;102957.63;5045645;28;20032;-70
2022/11/11 09:07:45;;;;;;;10.50;4.20;;;;;;;8.18;100.00;102963.41;5045808;28;20048;-65
2022/11/11 09:10:11;;;;;;;10.15;4.15;;;;;;;8.22;100.00;102960.34;5046150;28;20021;-65
2022/11/11 09:12:36;;;;;;;9.20;4.70;;;;;;;8.25;100.00;102956.59;5045669;28;20053;-65
2022/11/11 09:15:02;;;;;;;10.60;5.05;;;;;;;8.27;100.00;102959.97;5045050;28;20032;-65
2022/11/11 09:17:27;;;;;;;12.45;6.65;;;;;;;8.29;100.00;102955.38;5045118;28;20033;-65
2022/11/11 09:19:53;;;;;;;9.90;4.15;;;;;;;8.30;100.00;102959.69;5045792;28;20043;-65
2022/11/11 09:22:18;;;;;;;11.07;5.00;;;;;;;8.38;100.00;102969.69;5045628;28;20334;-66
2022/11/11 09:24:43;;;;;;;14.18;5.00;;;;;;;8.44;100.00;102970.06;5044810;28;20033;-64
2022/11/11 09:27:10;;;;;;;11.30;4.97;;;;;;;8.49;100.00;102977.66;5045678;28;20079;-65
2022/11/11 09:29:35;;;;;;;11.45;5.00;;;;;;;8.55;100.00;102966.47;5045344;28;20099;-64
2022/11/11 09:32:01;;;;;;;11.35;4.40;;;;;;;8.61;100.00;102963.28;5047666;28;20212;-65
2022/11/11 09:34:26;;;;;;;15.70;5.82;;;;;;;8.59;100.00;102959.91;5045286;28;20037;-66
2022/11/11 09:36:52;;;;;;;12.13;3.97;;;;;;;8.60;100.00;102955.47;5044416;28;20052;-66
2022/11/11 09:39:17;;;;;;;11.52;4.60;;;;;;;8.69;100.00;102965.28;5050836;28;20060;-66
2022/11/11 09:42:33;;;;;;;12.82;4.97;;;;;;;8.72;100.00;102965.03;5050959;28;20473;-66
2022/11/11 09:45:11;;;;;;;11.77;5.03;;;;;;;8.73;100.00;102964.06;5041722;28;20451;-67
2022/11/11 09:47:36;;;;;;;9.95;4.32;;;;;;;8.78;100.00;102965.34;5050814;28;20033;-67
2022/11/11 09:50:03;;;;;;;11.00;4.17;;;;;;;8.85;100.00;102968.31;5050894;28;20530;-67
2022/11/11 09:52:40;;;;;;;10.50;4.45;;;;;;;8.89;100.00;102974.22;5050728;28;20282;-67
2022/11/11 09:55:16;;;;;;;10.95;5.63;;;;;;;8.95;100.00;102977.19;5050803;28;20480;-66
2022/11/11 09:57:56;;;;;;;12.75;4.85;;;;;;;9.03;100.00;102970.34;5050727;28;20033;-67
2022/11/11 10:00:27;;;;;;;9.95;4.05;;;;;;;9.06;100.00;102983.38;5050773;28;20017;-66
2022/11/11 10:02:56;;;;;;;11.45;4.40;;;;;;;9.10;100.00;102976.84;5049702;28;20028;-66
2022/11/11 10:05:32;;;;;;;10.85;4.53;;;;;;;9.15;100.00;102988.75;5050569;28;20074;-67
2022/11/11 10:08:06;;;;;;;9.68;5.13;;;;;;;9.17;99.90;102978.00;5050616;28;20503;-67
2022/11/11 10:10:41;;;;;;;11.07;5.00;;;;;;;9.24;99.73;102980.94;5050310;28;20452;-67
2022/11/11 10:13:14;;;;;;;11.90;4.78;;;;;;;9.26;99.51;102985.16;5050411;28;20129;-67
2022/11/11 10:16:00;;;;;;;9.35;4.85;;;;;;;9.32;99.48;102987.25;5050233;28;20017;-67
2022/11/11 10:18:32;;;;;;;12.07;5.35;;;;;;;9.34;99.20;102982.66;5050181;28;20056;-67
2022/11/11 10:20:58;;;;;;;12.10;4.68;;;;;;;9.41;99.55;102989.13;5050227;28;20021;-66
2022/11/11 10:23:34;;;;;;;12.57;5.47;;;;;;;9.46;99.06;102995.84;5048810;28;20037;-67
2022/11/11 10:26:10;;;;;;;10.52;4.20;;;;;;;9.43;98.47;102986.31;5050218;28;20104;-73
2022/11/11 10:28:38;;;;;;;10.65;4.32;;;;;;;9.51;98.33;102999.81;5050214;28;20021;-73
2022/11/11 10:31:13;;;;;;;8.25;3.72;;;;;;;9.58;98.87;102998.25;5050034;28;20107;-74
2022/11/11 10:33:42;;;;;;;16.95;4.50;;;;;;;9.66;99.33;102993.09;5050011;28;20079;-73
2022/11/11 10:36:16;;;;;;;10.00;4.13;;;;;;;9.71;97.90;102997.16;5049786;28;20512;-74
2022/11/11 10:39:03;;;;;;;9.82;3.65;;;;;;;9.79;98.31;102992.00;5049659;28;20148;-73
2022/11/11 10:41:41;;;;;;;11.20;4.50;;;;;;;9.85;97.37;102994.09;5049784;28;20100;-73
2022/11/11 10:44:21;;;;;;;11.60;4.95;;;;;;;9.98;96.95;102985.81;5049993;28;20473;-73
2022/11/11 10:47:00;;;;;;;10.88;4.15;;;;;;;10.13;96.86;102988.91;5049766;28;20495;-73
2022/11/11 10:49:30;;;;;;;13.75;4.55;;;;;;;10.23;96.31;102979.09;5049735;28;20502;-73
2022/11/11 10:52:20;;;;;;;10.20;4.22;;;;;;;10.31;95.76;102980.09;5049566;28;20028;-73
2022/11/11 10:55:16;;;;;;;7.55;3.58;;;;;;;10.42;96.86;102980.91;5049706;28;20432;-73
2022/11/11 10:57:52;;;;;;;9.30;3.90;;;;;;;10.45;95.46;102977.97;5049209;28;20072;-73
2022/11/11 11:00:18;;;;;;;8.90;4.45;;;;;;;10.50;94.46;102986.38;5049581;28;20115;-73
2022/11/11 11:02:47;;;;;;;7.57;3.67;;;;;;;10.52;93.87;102974.56;5049443;28;20116;-73
2022/11/11 11:05:20;;;;;;;10.52;3.63;;;;;;;10.53;94.42;102968.28;5049594;28;20040;-73
2022/11/11 11:07:50;;;;;;;6.57;3.35;;;;;;;10.58;92.52;102973.16;5049320;28;20119;-73
2022/11/11 11:10:25;;;;;;;6.63;2.95;;;;;;;10.62;92.87;102969.22;5049325;28;20060;-74
2022/11/11 11:13:04;;;;;;;7.15;3.15;;;;;;;10.72;93.12;102971.88;5049322;28;20024;-74
2022/11/11 11:15:32;;;;;;;7.57;2.88;;;;;;;10.79;93.35;102969.44;5049398;28;20025;-73
2022/11/11 11:18:05;;;;;;;4.53;2.65;;;;;;;10.85;92.22;102963.53;5049147;28;20025;-73
2022/11/11 11:20:31;;;;;;;7.00;3.40;;;;;;;10.89;92.35;102968.41;5049014;28;20515;-73
2022/11/11 11:23:00;;;;;;;7.15;2.88;;;;;;;10.93;91.87;102967.16;5049306;28;20033;-74
2022/11/11 11:25:28;;;;;;;6.28;3.00;;;;;;;10.99;91.99;102965.72;5049165;28;20025;-73
2022/11/11 11:28:06;;;;;;;6.97;3.35;;;;;;;11.05;92.10;102967.78;5046019;28;20021;-73
2022/11/11 11:30:31;;;;;;;5.43;3.15;;;;;;;11.08;91.13;102966.66;5042908;28;20436;-74
2022/11/11 11:32:58;;;;;;;5.57;2.45;;;;;;;11.14;92.24;102969.59;5042812;28;20040;-73
2022/11/11 11:35:35;;;;;;;7.82;2.60;;;;;;;11.21;93.10;102967.16;5042705;28;20025;-74
2022/11/11 11:38:01;;;;;;;6.03;3.00;;;;;;;11.23;90.97;102965.19;5042895;28;20064;-74
2022/11/11 11:40:44;;;;;;;6.45;3.22;;;;;;;11.28;91.80;102962.91;5042987;28;20036;-73
2022/11/11 11:43:33;;;;;;;9.38;3.05;;;;;;;11.36;91.58;102962.16;5043350;28;20087;-71
2022/11/11 11:46:00;;;;;;;5.90;2.67;;;;;;;11.34;89.53;102956.13;5042915;28;20025;-71
2022/11/11 11:48:48;;;;;;;10.50;3.65;;;;;;;11.44;89.98;102958.72;5041600;28;20368;-71
2022/11/11 11:51:23;;;;;;;4.40;2.55;;;;;;;11.49;90.11;102967.16;5043135;28;20111;-70
2022/11/11 11:54:01;;;;;;;5.00;2.50;;;;;;;11.55;90.19;102962.06;5043084;28;20700;-71
2022/11/11 11:56:37;;;;;;;6.82;2.75;;;;;;;11.62;90.04;102962.28;5042115;28;20035;-71
2022/11/11 11:59:15;;;;;;;7.50;3.25;;;;;;;11.67;89.75;102953.81;5040832;28;20029;-70
2022/11/11 12:01:53;;;;;;;4.55;2.53;;;;;;;11.71;89.07;102953.34;5042995;28;20025;-71
2022/11/11 12:04:33;;;;;;;6.47;2.03;;;;;;;11.73;89.80;102951.34;5042806;28;20123;-71
2022/11/11 12:07:07;;;;;;;8.05;2.00;;;;;;;11.76;89.14;102959.09;5043366;28;20090;-66
2022/11/11 12:09:53;;;;;;;5.80;2.60;;;;;;;11.77;88.93;102952.72;5042030;28;20025;-66
2022/11/11 12:12:52;;;;;;;5.10;2.33;;;;;;;11.83;87.65;102953.94;5043012;28;20444;-68
2022/11/11 12:15:32;;;;;;;5.88;2.70;;;;;;;11.89;87.12;102955.19;5043121;28;20024;-67
2022/11/11 12:18:20;;;;;;;3.65;1.95;;;;;;;11.89;86.91;102947.19;5042442;28;20052;-67
2022/11/11 12:20:51;;;;;;;3.47;1.83;;;;;;;11.94;87.20;102945.72;5042865;28;20384;-66
2022/11/11 12:23:48;;;;;;;6.03;2.42;;;;;;;12.02;87.14;102939.59;5043021;28;20084;-66
2022/11/11 12:26:20;;;;;;;4.43;2.40;;;;;;;12.08;87.34;102933.66;5046734;28;20048;-66
2022/11/11 12:29:16;;;;;;;6.65;2.15;;;;;;;12.16;87.21;102930.19;5046305;28;20024;-67
2022/11/11 12:31:44;;;;;;;3.72;1.95;;;;;;;12.17;85.88;102929.19;5046257;28;20063;-67
2022/11/11 12:34:21;;;;;;;32.47;6.22;;;;;;;12.31;88.73;102925.09;5045822;28;20139;-66
2022/11/11 12:36:52;;;;;;;5.00;2.47;;;;;;;12.30;86.24;102921.59;5045997;28;20028;-69
2022/11/11 12:39:36;;;;;;;5.88;1.98;;;;;;;12.36;87.92;102926.31;5045828;28;20373;-66
2022/11/11 12:42:17;;;;;;;3.83;1.52;;;;;;;12.36;86.42;102920.13;5050917;28;20029;-66
2022/11/11 12:45:11;;;;;;;1.50;1.40;;;;;;;12.38;85.33;102926.16;5052193;28;20025;-66